Time;durP1;ratioP1;P1;durP2;ratioP2;P2;SDS_P1;SDS_P2;PMS_P1;PMS_P2;Temp;Humidity;BMP_temperature;BMP_pressure;BME280_temperature;BME280_humidity;BME280_pressure;Samples;Min_cycle;Max_cycle;Signal;HPM_P1;HPM_P2
2022/04/25 00:01:36;;;;;;;;;16.00;13.75;;;;;17.36;43.74;100372.75;5060606;28;45374;-61
2022/04/25 00:04:03;;;;;;;;;16.00;14.50;;;;;17.38;43.55;100380.75;5058611;28;45309;-61
2022/04/25 00:06:28;;;;;;;;;18.00;17.75;;;;;17.31;43.63;100368.66;5057132;28;45418;-61
2022/04/25 00:08:54;;;;;;;;;10.00;8.50;;;;;17.35;43.95;100376.41;5052250;28;45184;-61
2022/04/25 00:11:19;;;;;;;;;18.00;16.50;;;;;17.33;43.94;100375.66;5059023;28;45394;-61
2022/04/25 00:13:44;;;;;;;;;18.00;17.25;;;;;17.32;43.66;100367.66;5059921;28;45368;-62
2022/04/25 00:16:10;;;;;;;;;14.75;14.00;;;;;17.32;43.63;100378.47;5058162;28;45994;-62
2022/04/25 00:18:35;;;;;;;;;21.25;18.25;;;;;17.31;43.67;100377.59;5059796;28;45406;-62
2022/04/25 00:21:00;;;;;;;;;20.25;17.75;;;;;17.29;43.48;100379.53;5057793;28;45436;-61
2022/04/25 00:23:26;;;;;;;;;15.75;15.75;;;;;17.28;43.73;100380.50;5059962;28;45565;-61
2022/04/25 00:25:51;;;;;;;;;17.00;15.50;;;;;17.24;43.86;100368.19;5059416;28;45295;-61
2022/04/25 00:28:17;;;;;;;;;19.25;17.25;;;;;17.22;43.68;100371.00;5059381;28;45241;-62
2022/04/25 00:30:42;;;;;;;;;15.25;12.50;;;;;17.12;43.69;100369.00;5058172;28;45509;-61
2022/04/25 00:33:08;;;;;;;;;16.75;15.50;;;;;17.06;43.44;100369.38;5060172;28;45483;-62
2022/04/25 00:35:33;;;;;;;;;16.00;15.25;;;;;17.02;43.63;100369.59;5058802;28;46093;-62
2022/04/25 00:37:58;;;;;;;;;16.00;15.00;;;;;17.03;43.77;100370.47;5059678;28;45312;-62
2022/04/25 00:40:24;;;;;;;;;21.25;19.75;;;;;17.06;43.48;100366.69;5059991;28;45282;-62
2022/04/25 00:42:51;;;;;;;;;26.50;23.50;;;;;16.98;43.34;100367.19;5059525;28;45429;-61
2022/04/25 00:45:17;;;;;;;;;30.25;27.00;;;;;16.92;43.60;100372.97;5059797;28;45340;-62
2022/04/25 00:47:44;;;;;;;;;28.25;25.00;;;;;16.84;43.83;100374.34;5059118;28;45601;-61
2022/04/25 00:50:10;;;;;;;;;29.50;27.50;;;;;16.85;43.95;100369.81;5059636;28;45153;-62
2022/04/25 00:52:37;;;;;;;;;27.00;26.75;;;;;16.75;44.09;100356.03;5059906;28;45302;-61
2022/04/25 00:55:07;;;;;;;;;30.00;27.50;;;;;16.81;43.95;100371.81;5052661;28;45340;-62
2022/04/25 00:57:33;;;;;;;;;30.00;27.75;;;;;16.64;44.02;100362.13;5059028;28;45604;-62
2022/04/25 00:59:59;;;;;;;;;31.25;29.25;;;;;16.64;44.03;100381.00;5059766;28;45446;-61
2022/04/25 01:02:26;;;;;;;;;34.75;30.75;;;;;16.64;44.12;100382.81;5059849;28;45448;-61
2022/04/25 01:04:55;;;;;;;;;28.75;27.25;;;;;16.64;44.07;100381.00;5059052;28;47018;-61
2022/04/25 01:07:20;;;;;;;;;31.25;28.75;;;;;16.67;44.36;100385.28;5059832;28;45249;-61
2022/04/25 01:09:46;;;;;;;;;32.25;29.50;;;;;16.59;44.05;100375.03;5059419;28;45295;-62
2022/04/25 01:12:12;;;;;;;;;30.25;29.00;;;;;16.62;44.23;100382.91;5059275;28;45300;-62
2022/04/25 01:14:37;;;;;;;;;27.75;26.75;;;;;16.59;44.25;100376.84;5055996;28;45574;-61
2022/04/25 01:17:03;;;;;;;;;22.50;22.00;;;;;16.57;44.20;100384.16;5057319;28;45229;-61
2022/04/25 01:19:29;;;;;;;;;18.75;17.75;;;;;16.54;44.22;100373.56;5063111;28;45338;-61
2022/04/25 01:22:13;;;;;;;;;17.50;17.50;;;;;16.54;44.26;100378.94;5062611;28;45342;-62
2022/04/25 01:27:23;;;;;;;;;15.25;14.00;;;;;16.51;44.34;100371.94;5062821;28;45481;-61
2022/04/25 01:29:52;;;;;;;;;20.50;18.50;;;;;16.45;44.55;100373.19;5055810;28;45284;-61
2022/04/25 01:32:19;;;;;;;;;13.50;13.50;;;;;16.40;44.56;100363.66;5062847;28;45370;-61
2022/04/25 01:34:45;;;;;;;;;16.00;13.50;;;;;16.42;44.78;100369.81;5061993;28;46107;-61
2022/04/25 01:37:13;;;;;;;;;16.50;15.50;;;;;16.38;44.59;100369.16;5062616;28;45354;-61
2022/04/25 01:39:41;;;;;;;;;15.50;14.50;;;;;16.38;44.56;100374.53;5062796;28;45497;-61
2022/04/25 01:42:07;;;;;;;;;13.00;13.00;;;;;16.39;44.68;100376.28;5062193;28;45238;-61
2022/04/25 01:44:34;;;;;;;;;14.00;14.00;;;;;16.36;44.73;100367.53;5061775;28;46441;-61
2022/04/25 01:47:00;;;;;;;;;13.50;13.50;;;;;16.32;44.77;100377.59;5061840;28;45425;-61
2022/04/25 01:49:25;;;;;;;;;17.75;15.50;;;;;16.29;44.70;100377.81;5062535;28;45413;-62
2022/04/25 01:51:51;;;;;;;;;15.50;15.50;;;;;16.28;44.92;100381.47;5062446;28;45234;-61
2022/04/25 01:54:25;;;;;;;;;15.00;14.00;;;;;16.24;45.06;100388.00;5061977;28;46929;-61
2022/04/25 01:56:54;;;;;;;;;16.75;15.75;;;;;16.16;45.07;100371.47;5062359;28;45511;-61
2022/04/25 01:59:19;;;;;;;;;19.00;16.00;;;;;16.23;45.06;100387.13;5062285;28;45232;-62
2022/04/25 02:01:45;;;;;;;;;4.75;0.75;;;;;16.21;45.18;100391.75;5062475;28;45460;-61
2022/04/25 02:04:10;;;;;;;;;17.50;15.25;;;;;16.18;45.34;100389.25;5059293;28;45406;-62
2022/04/25 02:06:36;;;;;;;;;14.25;13.75;;;;;16.20;45.13;100399.91;5092551;27;45389;-61
2022/04/25 02:09:02;;;;;;;;;15.75;15.00;;;;;16.18;45.28;100396.47;5062520;28;45285;-61
2022/04/25 02:11:28;;;;;;;;;19.75;17.75;;;;;16.10;45.47;100399.59;5049106;28;45392;-61
2022/04/25 02:13:54;;;;;;;;;16.75;15.50;;;;;16.06;45.60;100406.16;5061812;28;46248;-62
2022/04/25 02:16:21;;;;;;;;;14.25;13.50;;;;;16.04;45.65;100402.69;5080611;27;45177;-61
2022/04/25 02:18:47;;;;;;;;;16.25;14.00;;;;;16.01;45.67;100400.19;5062296;28;45294;-61
2022/04/25 02:21:12;;;;;;;;;16.75;16.75;;;;;15.99;45.97;100402.06;5062044;28;45487;-61
2022/04/25 02:23:39;;;;;;;;;16.75;15.75;;;;;16.01;45.90;100401.03;5061825;28;46133;-62
2022/04/25 02:26:08;;;;;;;;;16.50;14.50;;;;;16.02;45.73;100405.47;5051228;28;45608;-62
2022/04/25 02:28:35;;;;;;;;;16.75;14.25;;;;;16.04;46.11;100400.00;5062069;28;45466;-62
2022/04/25 02:31:01;;;;;;;;;15.00;11.75;;;;;16.09;45.77;100400.59;5055012;28;45405;-61
2022/04/25 02:33:27;;;;;;;;;19.50;17.25;;;;;16.08;45.94;100396.16;5061905;28;46436;-61
2022/04/25 02:35:54;;;;;;;;;20.50;17.25;;;;;15.97;46.09;100406.69;5051481;28;45157;-61
2022/04/25 02:38:19;;;;;;;;;19.50;14.25;;;;;15.89;46.09;100399.97;5061923;28;45303;-61
2022/04/25 02:40:45;;;;;;;;;17.00;12.50;;;;;15.88;46.34;100403.59;5058929;28;45410;-62
2022/04/25 02:43:10;;;;;;;;;19.25;17.25;;;;;15.88;46.39;100402.75;5061380;28;45386;-62
2022/04/25 02:45:35;;;;;;;;;15.25;14.75;;;;;15.91;46.28;100407.94;5051688;28;45415;-61
2022/04/25 02:48:01;;;;;;;;;15.00;13.75;;;;;15.89;46.34;100404.47;5061866;28;45603;-61
2022/04/25 02:50:26;;;;;;;;;18.25;15.25;;;;;15.81;46.56;100401.38;5061495;28;45244;-61
2022/04/25 02:52:53;;;;;;;;;15.00;14.25;;;;;15.77;46.61;100407.88;5061661;28;45299;-61
2022/04/25 02:55:20;;;;;;;;;19.25;15.50;;;;;15.78;46.75;100412.31;5047935;28;45378;-61
2022/04/25 02:57:45;;;;;;;;;16.00;14.25;;;;;15.80;46.82;100405.03;5061643;28;45216;-61
2022/04/25 03:00:11;;;;;;;;;17.25;15.75;;;;;15.76;46.70;100404.34;5061611;28;45513;-61
2022/04/25 03:02:37;;;;;;;;;20.50;15.50;;;;;15.82;46.66;100414.75;5055318;28;46272;-61
2022/04/25 03:05:03;;;;;;;;;19.00;18.50;;;;;15.83;46.82;100415.59;5059564;28;45583;-61
2022/04/25 03:07:28;;;;;;;;;20.00;18.00;;;;;15.80;46.99;100422.03;5061284;28;45318;-61
2022/04/25 03:09:53;;;;;;;;;18.75;12.75;;;;;15.79;46.89;100419.44;5061206;28;45313;-62
2022/04/25 03:12:19;;;;;;;;;15.00;15.00;;;;;15.78;46.73;100413.19;5064692;28;45298;-61
2022/04/25 03:14:45;;;;;;;;;20.00;17.00;;;;;15.82;47.01;100419.25;5052029;28;45367;-61
2022/04/25 03:17:11;;;;;;;;;15.25;14.75;;;;;15.77;46.93;100424.94;5055179;28;45298;-61
2022/04/25 03:19:37;;;;;;;;;19.75;16.00;;;;;15.68;47.13;100415.50;5059880;28;46084;-61
2022/04/25 03:22:03;;;;;;;;;17.50;17.50;;;;;15.65;47.47;100415.72;5060182;28;46832;-61
2022/04/25 03:24:30;;;;;;;;;17.75;17.75;;;;;15.60;47.35;100414.25;5055470;28;45248;-61
2022/04/25 03:26:55;;;;;;;;;18.50;16.50;;;;;15.60;47.52;100414.25;5055209;28;45314;-62
2022/04/25 03:29:21;;;;;;;;;17.25;17.00;;;;;15.56;47.42;100410.88;5055646;28;45386;-61
2022/04/25 03:31:46;;;;;;;;;18.25;18.25;;;;;15.57;47.72;100418.84;5059559;28;45478;-61
2022/04/25 03:34:12;;;;;;;;;18.00;17.25;;;;;15.60;47.69;100425.84;5059703;28;45304;-62
2022/04/25 03:36:37;;;;;;;;;21.75;18.00;;;;;15.53;48.04;100425.34;5066812;28;45204;-61
2022/04/25 03:39:03;;;;;;;;;19.50;19.50;;;;;15.53;47.91;100424.50;5064045;28;45460;-61
2022/04/25 03:41:31;;;;;;;;;1.00;0.00;;;;;15.53;47.90;100430.72;5068690;27;45461;-61
2022/04/25 03:43:56;;;;;;;;;18.75;17.75;;;;;15.54;48.20;100427.09;5057178;28;45310;-61
2022/04/25 03:46:22;;;;;;;;;21.25;19.00;;;;;15.48;48.24;100438.19;5048052;28;45315;-61
2022/04/25 03:48:47;;;;;;;;;21.25;18.50;;;;;15.42;48.37;100430.50;5060005;28;45335;-61
2022/04/25 03:51:12;;;;;;;;;22.50;20.75;;;;;15.33;48.18;100422.94;5060351;28;46263;-61
2022/04/25 03:53:38;;;;;;;;;23.00;20.00;;;;;15.35;48.71;100429.09;5057497;28;45322;-61
2022/04/25 03:59:02;;;;;;;;;25.00;21.25;;;;;15.22;48.86;100441.50;5041144;28;45358;-61
2022/04/25 04:01:27;;;;;;;;;23.75;22.50;;;;;15.25;48.69;100442.22;5058002;28;46078;-61
2022/04/25 04:03:53;;;;;;;;;21.50;19.25;;;;;15.26;48.94;100440.41;5055997;28;45130;-62
2022/04/25 04:06:19;;;;;;;;;19.50;19.50;;;;;15.27;48.92;100443.00;5057441;28;45314;-62
2022/04/25 04:08:44;;;;;;;;;20.75;19.00;;;;;15.24;49.04;100448.56;5060353;28;45264;-62
2022/04/25 04:11:10;;;;;;;;;22.00;21.50;;;;;15.21;49.08;100446.03;5060180;28;45431;-61
2022/04/25 04:13:35;;;;;;;;;21.75;19.25;;;;;15.18;49.00;100446.19;5053895;28;46832;-61
2022/04/25 04:16:01;;;;;;;;;21.00;21.00;;;;;15.15;49.33;100446.38;5058018;28;45467;-61
2022/04/25 04:18:27;;;;;;;;;20.00;18.50;;;;;15.13;49.19;100451.81;5060401;28;45439;-61
2022/04/25 04:20:52;;;;;;;;;18.25;17.00;;;;;15.14;49.41;100450.03;5059753;28;45821;-61
2022/04/25 04:23:19;;;;;;;;;20.50;16.75;;;;;15.10;49.44;100459.19;5055561;28;45365;-62
2022/04/25 04:25:44;;;;;;;;;21.50;20.00;;;;;14.98;49.38;100444.63;5085539;27;45376;-61
2022/04/25 04:28:10;;;;;;;;;26.00;20.50;;;;;14.96;49.54;100444.69;5051547;28;45456;-61
2022/04/25 04:30:36;;;;;;;;;21.00;20.00;;;;;14.97;50.06;100454.50;5052885;28;45822;-61
2022/04/25 04:33:02;;;;;;;;;24.50;22.75;;;;;14.99;49.88;100460.66;5056160;28;45555;-61
2022/04/25 04:38:11;;;;;;;;;21.00;20.75;;;;;15.01;50.29;100465.97;5059966;28;45232;-61
2022/04/25 04:40:37;;;;;;;;;23.50;22.00;;;;;14.98;49.91;100461.63;5057174;28;45270;-61
2022/04/25 04:43:03;;;;;;;;;20.75;18.75;;;;;14.99;50.07;100471.41;5059817;28;45221;-61
2022/04/25 04:45:29;;;;;;;;;23.75;20.75;;;;;15.02;50.10;100481.16;5048487;28;45514;-61
2022/04/25 04:47:54;;;;;;;;;21.25;19.00;;;;;14.99;50.26;100473.25;5059640;28;45178;-61
2022/04/25 04:50:20;;;;;;;;;21.25;21.25;;;;;14.98;50.30;100471.50;5058993;28;45929;-61
2022/04/25 04:52:49;;;;;;;;;24.25;23.75;;;;;14.98;50.39;100483.13;5058674;28;45385;-61
2022/04/25 04:55:15;;;;;;;;;25.00;23.75;;;;;14.93;50.56;100490.56;5051612;28;45418;-61
2022/04/25 04:57:40;;;;;;;;;28.75;24.25;;;;;14.90;50.61;100495.25;5059826;28;45492;-61
2022/04/25 05:00:08;;;;;;;;;22.25;21.25;;;;;14.86;50.45;100496.38;5075324;28;47448;-61
2022/04/25 05:02:34;;;;;;;;;28.25;23.25;;;;;14.84;50.38;100504.50;5059736;28;45324;-61
2022/04/25 05:04:59;;;;;;;;;26.25;25.25;;;;;14.79;50.45;100494.00;5056954;28;45290;-61
2022/04/25 05:07:25;;;;;;;;;29.75;27.00;;;;;14.74;50.89;100500.59;5059051;28;45339;-61
2022/04/25 05:09:51;;;;;;;;;28.75;24.25;;;;;14.70;50.98;100505.25;5055379;28;47119;-61
2022/04/25 05:12:17;;;;;;;;;27.75;26.25;;;;;14.71;50.84;100508.81;5056883;28;45378;-61
2022/04/25 05:14:42;;;;;;;;;35.00;32.25;;;;;14.71;50.95;100504.28;5056993;28;45492;-62
2022/04/25 05:17:07;;;;;;;;;31.00;28.50;;;;;14.69;51.05;100503.50;5069888;28;45537;-61
2022/04/25 05:19:33;;;;;;;;;32.75;29.25;;;;;14.72;51.01;100516.78;5058943;28;45290;-61
2022/04/25 05:21:58;;;;;;;;;30.25;30.00;;;;;14.72;50.87;100524.00;5054687;28;45357;-61
2022/04/25 05:24:23;;;;;;;;;34.25;31.00;;;;;14.72;50.98;100522.16;5052687;28;45330;-61
2022/04/25 05:26:49;;;;;;;;;30.75;30.75;;;;;14.62;51.43;100526.28;5059412;28;45281;-61
2022/04/25 05:29:14;;;;;;;;;30.75;30.50;;;;;14.59;51.12;100535.38;5062613;28;47219;-61
2022/04/25 05:31:40;;;;;;;;;31.50;28.75;;;;;14.54;51.31;100533.84;5059162;28;45394;-61
2022/04/25 05:34:05;;;;;;;;;34.00;31.00;;;;;14.53;51.55;100530.28;5058619;28;45149;-61
2022/04/25 05:36:31;;;;;;;;;33.00;30.50;;;;;14.57;51.52;100547.13;5057638;28;45675;-62
2022/04/25 05:38:56;;;;;;;;;33.75;31.75;;;;;14.50;51.76;100533.16;5058902;28;45451;-61
2022/04/25 05:41:22;;;;;;;;;32.25;29.00;;;;;14.46;51.60;100535.09;5059356;28;45277;-61
2022/04/25 05:43:48;;;;;;;;;35.75;33.25;;;;;14.46;51.87;100539.59;5057824;28;45174;-61
2022/04/25 05:46:13;;;;;;;;;39.50;34.00;;;;;14.45;51.77;100546.81;5056633;28;45383;-62
2022/04/25 05:54:07;;;;;;;;;32.00;29.00;;;;;14.34;51.82;100545.63;5059187;28;45355;-67
2022/04/25 05:56:33;;;;;;;;;40.25;33.50;;;;;14.31;52.13;100551.13;5057050;28;45149;-68
2022/04/25 05:58:58;;;;;;;;;40.25;33.75;;;;;14.39;52.15;100570.41;5052683;28;45968;-67
2022/04/25 06:01:24;;;;;;;;;37.00;32.75;;;;;14.35;52.04;100568.81;5058800;28;45233;-68
2022/04/25 06:03:49;;;;;;;;;34.00;31.25;;;;;14.43;52.00;100570.19;5051090;28;45420;-68
2022/04/25 06:06:14;;;;;;;;;39.00;34.50;;;;;14.40;52.13;100566.75;5061738;28;45267;-68
2022/04/25 06:08:40;;;;;;;;;40.50;32.75;;;;;14.42;51.90;100578.31;5062301;28;46278;-67
2022/04/25 06:11:05;;;;;;;;;40.50;35.25;;;;;14.42;52.22;100581.00;5061053;28;45818;-68
2022/04/25 06:13:31;;;;;;;;;36.50;33.25;;;;;14.41;52.28;100579.25;5059000;28;45352;-68
2022/04/25 06:15:56;;;;;;;;;36.00;32.25;;;;;14.40;52.07;100573.03;5057777;28;45448;-67
2022/04/25 06:18:22;;;;;;;;;40.75;35.25;;;;;14.40;51.84;100581.09;5060850;28;47305;-67
2022/04/25 06:20:49;;;;;;;;;43.00;35.00;;;;;14.40;51.98;100586.44;5048594;28;45732;-68
2022/04/25 06:23:14;;;;;;;;;40.50;35.50;;;;;14.34;52.28;100585.91;5058696;28;45580;-67
2022/04/25 06:25:39;;;;;;;;;43.25;36.75;;;;;14.36;52.22;100584.00;5060716;28;45426;-69
2022/04/25 06:28:05;;;;;;;;;45.00;36.75;;;;;14.36;52.06;100584.00;5053513;28;45528;-67
2022/04/25 06:30:30;;;;;;;;;39.00;35.25;;;;;14.28;52.23;100581.69;5053843;28;45415;-68
2022/04/25 06:32:57;;;;;;;;;40.25;34.25;;;;;14.34;52.33;100583.22;5056959;28;45472;-68
2022/04/25 06:35:23;;;;;;;;;41.00;35.25;;;;;14.26;52.26;100579.06;5077010;28;45734;-68
2022/04/25 06:37:49;;;;;;;;;47.25;39.50;;;;;14.27;52.05;100593.38;5059177;28;45390;-68
2022/04/25 06:40:16;;;;;;;;;45.75;37.75;;;;;14.21;52.34;100599.91;5061753;28;45468;-68
2022/04/25 06:42:42;;;;;;;;;48.75;40.00;;;;;14.14;52.18;100597.63;5077332;28;45331;-68
2022/04/25 06:45:08;;;;;;;;;39.00;35.25;;;;;14.10;52.59;100599.59;5056532;28;45493;-68
2022/04/25 06:47:34;;;;;;;;;44.25;37.75;;;;;14.11;52.48;100595.94;5058640;28;46008;-68
2022/04/25 06:49:59;;;;;;;;;42.00;37.50;;;;;14.11;52.38;100601.31;5058828;28;45410;-68
2022/04/25 06:52:24;;;;;;;;;41.75;36.25;;;;;14.09;52.30;100600.53;5059817;28;45497;-68
2022/04/25 06:54:51;;;;;;;;;47.25;38.50;;;;;14.04;52.52;100597.22;5055050;28;45828;-68
2022/04/25 06:57:16;;;;;;;;;40.00;36.75;;;;;14.16;52.20;100617.22;5052725;28;47062;-68
2022/04/25 06:59:43;;;;;;;;;46.25;38.75;;;;;14.14;52.18;100605.69;5060485;28;45382;-69
2022/04/25 07:02:10;;;;;;;;;43.75;37.50;;;;;14.05;52.31;100598.97;5056354;28;45699;-69
2022/04/25 07:04:36;;;;;;;;;51.00;41.25;;;;;14.11;52.51;100614.75;5058643;28;45595;-62
2022/04/25 07:07:02;;;;;;;;;38.75;35.75;;;;;14.03;52.40;100607.09;5063378;28;46132;-62
2022/04/25 07:09:27;;;;;;;;;46.00;37.50;;;;;14.05;52.67;100623.13;5073288;28;45716;-62
2022/04/25 07:11:53;;;;;;;;;50.00;38.75;;;;;14.03;52.47;100615.13;5049215;28;47077;-65
2022/04/25 07:14:21;;;;;;;;;46.75;39.75;;;;;14.00;52.38;100623.34;5046932;28;47272;-62
2022/04/25 07:16:48;;;;;;;;;45.00;38.00;;;;;14.00;52.39;100625.13;5042510;28;46039;-63
2022/04/25 07:19:15;;;;;;;;;48.75;40.00;;;;;13.92;52.32;100613.91;5068581;28;45291;-63
2022/04/25 07:29:52;;;;;;;;;54.50;41.50;;;;;13.82;52.63;100630.44;5052964;28;45418;-63
2022/04/25 07:32:18;;;;;;;;;49.50;41.00;;;;;13.83;53.12;100642.03;5056983;28;45401;-63
2022/04/25 07:34:48;;;;;;;;;47.25;39.75;;;;;13.87;52.97;100641.81;5049127;28;45607;-63
2022/04/25 07:37:18;;;;;;;;;45.75;37.75;;;;;13.89;52.56;100637.25;5054850;28;46362;-63
2022/04/25 07:39:45;;;;;;;;;44.25;38.25;;;;;13.94;53.02;100645.09;5047850;28;45668;-63
2022/04/25 07:42:11;;;;;;;;;40.50;35.25;;;;;13.95;52.68;100651.31;5058289;28;45432;-63
2022/04/25 07:44:37;;;;;;;;;44.00;38.00;;;;;13.96;52.80;100653.06;5060450;28;45435;-63
2022/04/25 07:47:03;;;;;;;;;47.50;40.00;;;;;13.94;52.58;100654.97;5056555;28;47090;-63
2022/04/25 07:49:28;;;;;;;;;50.25;39.50;;;;;13.86;52.49;100658.00;5057287;28;45738;-63
2022/04/25 07:51:55;;;;;;;;;48.25;38.00;;;;;13.82;52.86;100664.47;5048174;28;45872;-63
2022/04/25 07:54:22;;;;;;;;;47.25;38.25;;;;;13.79;52.81;100660.09;5059062;28;45398;-63
2022/04/25 07:56:48;;;;;;;;;43.50;38.00;;;;;13.79;52.69;100668.16;5058512;28;46234;-63
2022/04/25 07:59:13;;;;;;;;;45.00;37.50;;;;;13.76;52.77;100662.91;5057967;27;45408;-63
2022/04/25 08:01:38;;;;;;;;;42.00;37.00;;;;;13.84;53.01;100671.47;5058323;28;45612;-62
2022/04/25 08:04:04;;;;;;;;;49.75;40.00;;;;;13.90;52.72;100673.03;5052546;28;45642;-63
2022/04/25 08:06:30;;;;;;;;;43.25;36.25;;;;;13.89;52.90;100673.97;5057555;28;45339;-62
2022/04/25 08:08:56;;;;;;;;;41.75;37.00;;;;;13.93;52.74;100672.84;5058139;28;45401;-63
2022/04/25 08:11:22;;;;;;;;;44.75;37.50;;;;;13.89;52.81;100680.19;5054003;28;45438;-63
2022/04/25 08:19:16;;;;;;;;;46.50;38.25;;;;;13.93;53.11;100680.91;5054203;28;45838;-62
2022/04/25 08:21:43;;;;;;;;;42.50;37.00;;;;;13.99;53.00;100685.13;5059066;28;45313;-63
2022/04/25 08:24:09;;;;;;;;;52.00;40.50;;;;;13.93;53.00;100672.84;5059212;28;45607;-63
2022/04/25 08:26:35;;;;;;;;;43.25;37.50;;;;;13.98;53.15;100678.91;5051099;28;45450;-62
2022/04/25 08:29:01;;;;;;;;;48.50;38.00;;;;;14.03;53.00;100687.59;5054598;28;45397;-63
2022/04/25 08:31:27;;;;;;;;;45.00;38.50;;;;;14.08;52.70;100690.03;5055006;28;45582;-62
2022/04/25 08:33:53;;;;;;;;;44.75;38.00;;;;;14.15;52.73;100691.50;5054993;28;45613;-63
2022/04/25 08:36:18;;;;;;;;;50.25;40.25;;;;;14.17;52.88;100686.06;5047929;28;46542;-62
2022/04/25 08:38:47;;;;;;;;;47.75;38.00;;;;;14.10;52.66;100669.38;5054142;28;45347;-63
2022/04/25 08:41:15;;;;;;;;;41.00;37.00;;;;;14.27;52.63;100696.28;5050325;28;45383;-63
2022/04/25 08:43:41;;;;;;;;;51.25;40.50;;;;;14.32;52.48;100695.19;5049070;28;45541;-62
2022/04/25 08:46:11;;;;;;;;;46.50;39.50;;;;;14.34;52.42;100696.84;5059257;28;45430;-62
2022/04/25 08:48:37;;;;;;;;;44.25;37.00;;;;;14.40;52.74;100696.56;5056389;28;45559;-63
2022/04/25 08:51:05;;;;;;;;;47.25;38.75;;;;;14.44;52.40;100690.06;5041857;28;45416;-62
2022/04/25 08:53:32;;;;;;;;;42.75;37.00;;;;;14.53;52.13;100709.38;5056110;28;45356;-62
2022/04/25 08:56:03;;;;;;;;;42.00;34.50;;;;;14.48;51.80;100708.72;5059231;28;46202;-63
2022/04/25 08:58:31;;;;;;;;;46.75;39.00;;;;;14.41;51.63;100709.00;5055123;28;45751;-62
2022/04/25 09:00:57;;;;;;;;;43.25;36.00;;;;;14.42;51.71;100710.78;5049753;28;46076;-69
2022/04/25 09:03:24;;;;;;;;;48.25;40.00;;;;;14.44;51.75;100708.00;5052778;28;45593;-70
2022/04/25 09:05:50;;;;;;;;;41.00;36.75;;;;;14.46;51.95;100711.47;5055648;28;46217;-68
2022/04/25 09:08:15;;;;;;;;;44.25;38.25;;;;;14.40;51.78;100712.66;5064620;27;45434;-64
2022/04/25 09:10:43;;;;;;;;;47.00;37.25;;;;;14.36;52.03;100716.44;5057563;28;45362;-64
2022/04/25 09:13:11;;;;;;;;;45.25;37.75;;;;;14.33;52.02;100710.34;5049747;28;46457;-64
2022/04/25 09:15:36;;;;;;;;;43.75;37.50;;;;;14.31;52.25;100712.25;5058253;28;45485;-63
2022/04/25 09:18:02;;;;;;;;;38.25;33.75;;;;;14.36;51.87;100711.06;5047158;28;45327;-63
2022/04/25 09:20:27;;;;;;;;;37.50;33.25;;;;;14.33;52.04;100697.78;5058743;28;45151;-63
2022/04/25 09:22:53;;;;;;;;;43.25;38.00;;;;;14.40;52.19;100720.72;5058339;28;45477;-63
2022/04/25 09:25:20;;;;;;;;;45.00;37.75;;;;;14.45;51.71;100710.63;5058712;28;45406;-63
2022/04/25 09:27:47;;;;;;;;;41.75;34.00;;;;;14.54;52.00;100725.41;5051689;28;45388;-63
2022/04/25 09:30:15;;;;;;;;;44.00;34.00;;;;;14.59;51.70;100718.03;5058407;28;45404;-63
2022/04/25 09:32:41;;;;;;;;;44.50;36.25;;;;;14.64;51.80;100718.66;5061464;28;45453;-63
2022/04/25 09:35:29;;;;;;;;;39.25;35.50;;;;;14.72;51.44;100730.88;5069513;28;48325;-63
2022/04/25 09:37:56;;;;;;;;;37.50;33.75;;;;;14.76;51.13;100727.06;5058094;28;45735;-63
2022/04/25 09:40:22;;;;;;;;;41.50;36.50;;;;;14.78;51.30;100728.75;5062038;28;45402;-63
2022/04/25 09:43:14;;;;;;;;;43.25;35.50;;;;;14.80;51.50;100721.47;5062282;28;45437;-63
2022/04/25 09:45:42;;;;;;;;;35.50;33.25;;;;;14.77;51.12;100710.88;5050022;28;46249;-63
2022/04/25 09:48:18;;;;;;;;;44.00;37.00;;;;;14.89;51.28;100722.81;5057097;28;45646;-63
2022/04/25 09:50:58;;;;;;;;;37.50;33.75;;;;;14.96;51.28;100728.75;5050723;28;45430;-63
2022/04/25 09:53:45;;;;;;;;;38.75;34.00;;;;;14.98;51.20;100721.47;5077475;28;45448;-63
2022/04/25 09:56:12;;;;;;;;;38.75;34.25;;;;;15.06;51.00;100732.69;5061125;28;46173;-63
2022/04/25 09:58:38;;;;;;;;;40.75;35.00;;;;;15.01;51.19;100724.88;5053610;28;45681;-63
2022/04/25 10:01:14;;;;;;;;;36.00;34.00;;;;;15.06;50.81;100724.63;5055576;28;45462;-63
2022/04/25 10:03:41;;;;;;;;;33.50;32.50;;;;;15.15;50.90;100734.94;5054040;28;46867;-63
2022/04/25 10:06:07;;;;;;;;;38.50;34.25;;;;;15.16;51.41;100733.97;5047661;28;45460;-63
2022/04/25 10:08:35;;;;;;;;;38.00;33.00;;;;;15.19;50.84;100735.63;5052613;28;45494;-64
2022/04/25 10:11:07;;;;;;;;;42.00;33.50;;;;;15.21;50.75;100743.63;5059571;28;45401;-63
2022/04/25 10:13:34;;;;;;;;;39.50;35.00;;;;;15.24;51.00;100740.78;5057063;28;45453;-63
2022/04/25 10:16:01;;;;;;;;;41.50;34.25;;;;;15.31;50.88;100742.19;5055801;28;45836;-63
2022/04/25 10:18:32;;;;;;;;;42.75;36.00;;;;;15.35;50.72;100741.97;5046926;28;45798;-63
2022/04/25 10:20:59;;;;;;;;;42.00;35.50;;;;;15.35;50.72;100741.06;5051234;28;45323;-63
2022/04/25 10:23:25;;;;;;;;;37.50;33.50;;;;;15.35;50.41;100744.66;5059422;28;45523;-63
2022/04/25 10:25:56;;;;;;;;;41.50;36.25;;;;;15.43;50.21;100743.38;5059668;28;46079;-63
2022/04/25 10:28:40;;;;;;;;;44.00;37.25;;;;;15.40;50.09;100740.84;5057609;28;45831;-63
2022/04/25 10:31:10;;;;;;;;;43.25;38.25;;;;;15.32;50.28;100730.50;5051618;28;45484;-63
2022/04/25 10:33:59;;;;;;;;;38.50;35.25;;;;;15.34;50.27;100732.13;5059973;28;45845;-63
2022/04/25 10:36:37;;;;;;;;;36.75;33.00;;;;;15.41;49.93;100748.81;5051314;28;45621;-63
2022/04/25 10:39:14;;;;;;;;;45.25;38.00;;;;;15.40;50.10;100736.31;5059282;28;45422;-63
2022/04/25 10:44:29;;;;;;;;;34.00;31.50;;;;;15.49;49.99;100743.91;5060536;28;45677;-63
2022/04/25 10:47:03;;;;;;;;;35.00;31.00;;;;;15.55;49.72;100738.22;5058619;28;47104;-64
2022/04/25 10:49:33;;;;;;;;;31.00;29.25;;;;;15.61;49.22;100754.97;5058922;28;45411;-63
2022/04/25 10:51:59;;;;;;;;;33.50;28.75;;;;;15.62;48.95;100741.44;5060357;28;45366;-64
2022/04/25 10:54:28;;;;;;;;;24.50;22.75;;;;;15.69;49.06;100744.69;5060360;28;45300;-63
2022/04/25 10:57:16;;;;;;;;;26.00;26.00;;;;;15.75;48.60;100744.34;5075883;27;47441;-63
2022/04/25 10:59:42;;;;;;;;;34.00;32.00;;;;;15.77;48.73;100749.66;5059205;28;45809;-63
2022/04/25 11:02:22;;;;;;;;;33.75;32.00;;;;;15.78;48.46;100752.28;5059692;28;45489;-63
2022/04/25 11:05:10;;;;;;;;;32.75;29.50;;;;;15.83;48.14;100739.44;5056206;28;45825;-64
2022/04/25 11:07:37;;;;;;;;;31.25;28.50;;;;;15.89;48.04;100749.88;5083197;27;47116;-63
2022/04/25 11:10:09;;;;;;;;;26.50;21.00;;;;;15.93;47.37;100742.50;5056191;28;45426;-63
2022/04/25 11:12:56;;;;;;;;;28.25;27.00;;;;;15.99;46.96;100749.34;5062113;28;45393;-63
2022/04/25 11:15:40;;;;;;;;;29.50;25.75;;;;;15.97;46.64;100748.59;5060622;28;45407;-63
2022/04/25 11:18:41;;;;;;;;;27.50;25.00;;;;;15.98;46.20;100743.13;5057954;28;45286;-63
2022/04/25 11:21:16;;;;;;;;;25.50;25.00;;;;;15.96;45.75;100739.66;5060011;28;45363;-63
2022/04/25 11:23:44;;;;;;;;;27.00;24.00;;;;;15.98;45.04;100750.34;5047608;28;47522;-63
2022/04/25 11:26:30;;;;;;;;;28.00;27.00;;;;;15.90;44.94;100746.25;5051924;28;45685;-63
2022/04/25 11:28:55;;;;;;;;;23.25;19.50;;;;;15.92;45.28;100744.34;5080120;27;48048;-66
2022/04/25 11:31:25;;;;;;;;;24.25;22.00;;;;;15.94;45.36;100733.47;5056704;28;45417;-63
2022/04/25 11:33:56;;;;;;;;;21.25;20.50;;;;;15.95;45.31;100748.66;5056624;28;45501;-63
2022/04/25 11:36:23;;;;;;;;;24.25;23.00;;;;;15.97;45.17;100743.19;5056490;28;45541;-64
2022/04/25 11:41:38;;;;;;;;;17.00;13.75;;;;;16.06;44.02;100740.88;5050935;28;45528;-64
2022/04/25 11:44:07;;;;;;;;;18.00;17.25;;;;;16.11;43.88;100741.47;5056624;28;45831;-63